createdAt,value
2023-01-31T00:00:25.746Z,41.57
2023-01-31T00:01:25.738Z,37.22
2023-01-31T00:02:25.784Z,38.19
2023-01-31T00:03:25.751Z,41.41
2023-01-31T00:04:25.712Z,42.22
2023-01-31T00:05:25.706Z,46.57
2023-01-31T00:06:25.700Z,45.60
2023-01-31T00:07:25.723Z,43.83
2023-01-31T00:08:25.681Z,36.90
2023-01-31T00:09:25.686Z,39.64
2023-01-31T00:10:25.671Z,38.51
2023-01-31T00:11:25.675Z,41.25
2023-01-31T00:12:25.678Z,42.54
2023-01-31T00:13:25.646Z,42.22
2023-01-31T00:14:25.639Z,43.02
2023-01-31T00:15:25.708Z,45.76
2023-01-31T00:16:25.620Z,43.83
2023-01-31T00:17:25.635Z,45.28
2023-01-31T00:18:25.615Z,43.83
2023-01-31T00:19:25.596Z,42.86
2023-01-31T00:20:25.590Z,42.54
2023-01-31T00:21:25.590Z,45.60
2023-01-31T00:22:25.598Z,44.47
2023-01-31T00:23:25.565Z,41.73
2023-01-31T00:24:25.562Z,41.57
2023-01-31T00:25:25.575Z,41.57
2023-01-31T00:26:25.620Z,42.06
2023-01-31T00:27:25.574Z,41.25
2023-01-31T00:28:25.625Z,43.02
2023-01-31T00:29:25.530Z,40.93
2023-01-31T00:30:25.519Z,40.93
2023-01-31T00:31:25.587Z,41.41
2023-01-31T00:32:25.583Z,41.73
2023-01-31T00:33:25.499Z,41.73
2023-01-31T00:34:25.491Z,42.06
2023-01-31T00:35:25.494Z,43.34
2023-01-31T00:36:25.479Z,43.99
2023-01-31T00:37:25.494Z,41.89
2023-01-31T00:38:25.455Z,41.73
2023-01-31T00:39:25.452Z,44.47
2023-01-31T00:40:25.445Z,41.89
2023-01-31T00:41:25.437Z,41.41
2023-01-31T00:42:25.426Z,40.77
2023-01-31T00:43:25.442Z,42.06
2023-01-31T00:44:25.411Z,42.54
2023-01-31T00:45:25.403Z,42.86
2023-01-31T00:46:25.522Z,42.22
2023-01-31T00:47:25.391Z,42.22
2023-01-31T00:48:25.415Z,42.22
2023-01-31T00:49:25.377Z,41.41
2023-01-31T00:50:25.372Z,41.41
2023-01-31T00:51:26.628Z,45.12
2023-01-31T00:52:26.417Z,43.83
2023-01-31T00:53:25.374Z,43.02
2023-01-31T00:54:25.340Z,44.15
2023-01-31T00:55:25.338Z,41.41
2023-01-31T00:56:25.319Z,41.25
2023-01-31T00:57:25.319Z,41.25
2023-01-31T00:58:25.329Z,41.57
2023-01-31T00:59:25.301Z,42.70
2023-01-31T01:00:25.324Z,43.34
2023-01-31T01:01:25.284Z,41.73
2023-01-31T01:02:25.276Z,42.70
2023-01-31T01:03:25.291Z,43.83
2023-01-31T01:04:25.260Z,42.54
2023-01-31T01:05:25.249Z,41.41
2023-01-31T01:06:25.256Z,41.41
2023-01-31T01:07:25.234Z,41.25
2023-01-31T01:08:25.260Z,41.25
2023-01-31T01:09:25.219Z,42.70
2023-01-31T01:10:25.210Z,43.99
2023-01-31T01:11:25.202Z,49.95
2023-01-31T01:12:25.208Z,42.06
2023-01-31T01:13:25.218Z,41.25
2023-01-31T01:14:25.186Z,42.54
2023-01-31T01:15:25.170Z,43.02
2023-01-31T01:16:25.246Z,40.93
2023-01-31T01:17:25.160Z,41.57
2023-01-31T01:18:25.260Z,41.41
2023-01-31T01:19:25.148Z,41.25
2023-01-31T01:20:25.124Z,40.61
2023-01-31T01:21:26.132Z,41.57
2023-01-31T01:22:25.117Z,42.22
2023-01-31T01:23:25.135Z,40.93
2023-01-31T01:24:25.103Z,44.63
2023-01-31T01:25:25.103Z,39.96
2023-01-31T01:26:25.150Z,40.44
2023-01-31T01:27:25.078Z,41.09
2023-01-31T01:28:25.735Z,40.93
2023-01-31T01:29:25.064Z,40.28
2023-01-31T01:30:25.056Z,40.28
2023-01-31T01:31:25.178Z,40.28
2023-01-31T01:32:25.118Z,41.09
2023-01-31T01:33:25.031Z,42.06
2023-01-31T01:34:25.053Z,42.38
2023-01-31T01:35:25.027Z,41.89
2023-01-31T01:36:25.007Z,40.77
2023-01-31T01:37:24.998Z,41.09
2023-01-31T01:38:24.994Z,40.61
2023-01-31T01:39:25.006Z,40.93
2023-01-31T01:40:24.978Z,43.02
2023-01-31T01:41:24.976Z,41.09
2023-01-31T01:42:24.965Z,40.28
2023-01-31T01:43:24.955Z,40.28
2023-01-31T01:44:24.978Z,40.93
2023-01-31T01:45:26.219Z,40.93
2023-01-31T01:46:24.926Z,40.28
2023-01-31T01:47:24.923Z,41.25
2023-01-31T01:48:24.913Z,40.44
2023-01-31T01:49:24.934Z,40.77
2023-01-31T01:50:24.910Z,41.25
2023-01-31T01:51:24.891Z,40.93
2023-01-31T01:52:24.885Z,40.61
2023-01-31T01:53:24.877Z,40.93
2023-01-31T01:54:24.893Z,42.06
2023-01-31T01:55:24.866Z,42.54
2023-01-31T01:56:24.853Z,49.31
2023-01-31T01:57:24.849Z,46.41
2023-01-31T01:58:24.839Z,42.86
2023-01-31T01:59:24.861Z,41.89
2023-01-31T02:00:24.825Z,41.25
2023-01-31T02:01:24.867Z,41.09
2023-01-31T02:02:24.866Z,40.44
2023-01-31T02:03:24.812Z,41.57
2023-01-31T02:04:24.814Z,45.28
2023-01-31T02:05:24.784Z,40.61
2023-01-31T02:06:24.775Z,39.96
2023-01-31T02:07:24.770Z,40.28
2023-01-31T02:08:25.035Z,40.28
2023-01-31T02:09:25.284Z,40.77
2023-01-31T02:10:25.276Z,48.18
2023-01-31T02:11:25.071Z,41.89
2023-01-31T02:12:25.115Z,43.51
2023-01-31T02:13:24.869Z,41.41
2023-01-31T02:14:24.802Z,41.09
2023-01-31T02:15:24.774Z,42.06
2023-01-31T02:16:24.783Z,43.99
2023-01-31T02:17:24.693Z,40.61
2023-01-31T02:18:24.741Z,40.44
2023-01-31T02:19:25.242Z,41.73
2023-01-31T02:20:25.189Z,40.77
2023-01-31T02:21:25.036Z,42.22
2023-01-31T02:22:25.008Z,43.51
2023-01-31T02:23:24.898Z,41.09
2023-01-31T02:24:24.922Z,41.73
2023-01-31T02:25:24.628Z,42.70
2023-01-31T02:26:24.653Z,40.44
2023-01-31T02:27:24.625Z,42.38
2023-01-31T02:28:24.650Z,40.77
2023-01-31T02:29:24.600Z,40.28
2023-01-31T02:30:25.123Z,41.09
2023-01-31T02:31:25.239Z,43.34
2023-01-31T02:32:24.987Z,41.25
2023-01-31T02:33:24.900Z,42.86
2023-01-31T02:34:24.942Z,46.89
2023-01-31T02:35:24.809Z,42.86
2023-01-31T02:36:24.592Z,46.08
2023-01-31T02:37:24.545Z,43.02
2023-01-31T02:38:24.539Z,40.61
2023-01-31T02:39:24.525Z,41.09
2023-01-31T02:40:24.542Z,40.93
2023-01-31T02:41:25.003Z,40.61
2023-01-31T02:42:25.027Z,41.25
2023-01-31T02:43:24.767Z,40.93
2023-01-31T02:44:24.826Z,44.15
2023-01-31T02:45:24.497Z,41.09
2023-01-31T02:46:24.658Z,40.77
2023-01-31T02:47:24.609Z,43.02
2023-01-31T02:48:24.456Z,41.89
2023-01-31T02:49:24.445Z,48.02
2023-01-31T02:50:24.463Z,45.44
2023-01-31T02:51:24.441Z,41.25
2023-01-31T02:52:24.425Z,45.60
2023-01-31T02:53:24.426Z,41.89
2023-01-31T02:54:24.410Z,48.66
2023-01-31T02:55:24.428Z,43.83
2023-01-31T02:56:24.394Z,43.99
2023-01-31T02:57:24.387Z,41.41
2023-01-31T02:58:24.380Z,42.22
2023-01-31T02:59:24.377Z,40.12
2023-01-31T03:00:24.394Z,40.12
2023-01-31T03:01:24.476Z,39.64
2023-01-31T03:02:24.390Z,40.44
2023-01-31T03:03:24.346Z,41.41
2023-01-31T03:04:24.338Z,41.89
2023-01-31T03:05:24.815Z,41.73
2023-01-31T03:06:24.319Z,45.60
2023-01-31T03:07:24.312Z,43.02
2023-01-31T03:08:24.307Z,42.70
2023-01-31T03:09:24.293Z,49.31
2023-01-31T03:10:24.323Z,41.09
2023-01-31T03:11:24.281Z,40.44
2023-01-31T03:12:24.271Z,43.51
2023-01-31T03:13:24.279Z,44.31
2023-01-31T03:14:24.261Z,45.60
2023-01-31T03:15:24.773Z,42.70
2023-01-31T03:16:24.259Z,40.77
2023-01-31T03:17:24.232Z,41.89
2023-01-31T03:18:24.239Z,40.77
2023-01-31T03:19:24.216Z,42.06
2023-01-31T03:20:24.208Z,40.44
2023-01-31T03:21:24.220Z,40.28
2023-01-31T03:22:24.185Z,40.28
2023-01-31T03:23:24.185Z,44.31
2023-01-31T03:24:24.172Z,43.34
2023-01-31T03:25:24.629Z,41.09
2023-01-31T03:26:24.201Z,42.54
2023-01-31T03:27:24.151Z,47.70
2023-01-31T03:28:24.144Z,46.89
2023-01-31T03:29:24.147Z,42.22
2023-01-31T03:30:24.127Z,48.82
2023-01-31T03:31:24.243Z,44.15
2023-01-31T03:32:24.117Z,44.47
2023-01-31T03:33:24.107Z,48.98
2023-01-31T03:34:24.102Z,43.18
2023-01-31T03:35:24.091Z,46.73
2023-01-31T03:36:24.116Z,44.63
2023-01-31T03:37:24.083Z,42.54
2023-01-31T03:38:24.068Z,41.25
2023-01-31T03:39:24.059Z,40.93
2023-01-31T03:40:24.064Z,40.61
2023-01-31T03:41:24.086Z,40.44
2023-01-31T03:42:24.042Z,44.31
2023-01-31T03:43:24.031Z,41.57
2023-01-31T03:44:24.019Z,44.31
2023-01-31T03:45:24.025Z,45.60
2023-01-31T03:46:24.005Z,46.41
2023-01-31T03:47:24.025Z,45.12
2023-01-31T03:48:23.991Z,45.60
2023-01-31T03:49:23.990Z,44.31
2023-01-31T03:50:23.976Z,43.18
2023-01-31T03:51:23.972Z,43.34
2023-01-31T03:52:23.995Z,44.31
2023-01-31T03:53:23.956Z,42.22
2023-01-31T03:54:23.946Z,43.18
2023-01-31T03:55:23.944Z,42.86
2023-01-31T03:56:23.934Z,43.51
2023-01-31T03:57:23.942Z,43.18
2023-01-31T03:58:23.915Z,42.38
2023-01-31T03:59:23.904Z,44.31
2023-01-31T04:00:23.895Z,45.12
2023-01-31T04:01:23.911Z,44.15
2023-01-31T04:02:23.930Z,41.89
2023-01-31T04:03:23.885Z,41.89
2023-01-31T04:04:23.870Z,48.66
2023-01-31T04:05:23.863Z,47.21
2023-01-31T04:06:23.859Z,49.63
2023-01-31T04:07:23.870Z,44.31
2023-01-31T04:08:23.835Z,42.86
2023-01-31T04:09:23.827Z,47.21
2023-01-31T04:10:23.819Z,42.54
2023-01-31T04:11:23.812Z,42.86
2023-01-31T04:12:23.831Z,51.40
2023-01-31T04:13:23.799Z,48.02
2023-01-31T04:14:23.790Z,52.69
2023-01-31T04:15:23.782Z,44.15
2023-01-31T04:16:23.841Z,48.66
2023-01-31T04:17:23.799Z,52.05
2023-01-31T04:18:23.760Z,46.41
2023-01-31T04:19:23.746Z,49.15
2023-01-31T04:20:23.740Z,48.66
2023-01-31T04:21:23.730Z,45.44
2023-01-31T04:22:23.756Z,49.47
2023-01-31T04:23:23.717Z,47.53
2023-01-31T04:24:23.709Z,49.47
2023-01-31T04:25:23.887Z,43.51
2023-01-31T04:26:23.726Z,45.44
2023-01-31T04:27:23.715Z,48.18
2023-01-31T04:28:23.679Z,47.86
2023-01-31T04:29:23.676Z,52.37
2023-01-31T04:30:23.668Z,51.88
2023-01-31T04:31:23.777Z,45.60
2023-01-31T04:32:23.674Z,51.88
2023-01-31T04:33:23.649Z,49.15
2023-01-31T04:34:23.649Z,50.11
2023-01-31T04:35:23.639Z,49.15
2023-01-31T04:36:23.620Z,52.69
2023-01-31T04:37:23.637Z,48.66
2023-01-31T04:38:23.601Z,47.86
2023-01-31T04:39:23.601Z,53.82
2023-01-31T04:40:23.589Z,49.63
2023-01-31T04:41:23.577Z,48.82
2023-01-31T04:42:23.608Z,52.21
2023-01-31T04:43:23.568Z,53.01
2023-01-31T04:44:23.563Z,57.85
2023-01-31T04:45:23.551Z,48.50
2023-01-31T04:46:23.599Z,49.63
2023-01-31T04:47:23.559Z,49.95
2023-01-31T04:48:23.535Z,44.79
2023-01-31T04:49:23.518Z,47.21
2023-01-31T04:50:23.515Z,49.63
2023-01-31T04:51:23.505Z,52.53
2023-01-31T04:52:23.494Z,52.85
2023-01-31T04:53:23.522Z,48.66
2023-01-31T04:54:23.477Z,46.89
2023-01-31T04:55:24.474Z,49.95
2023-01-31T04:56:23.471Z,57.52
2023-01-31T04:57:23.501Z,49.79
2023-01-31T04:58:23.448Z,51.24
2023-01-31T04:59:23.446Z,53.50
2023-01-31T05:00:23.434Z,49.15
2023-01-31T05:01:23.427Z,48.18
2023-01-31T05:02:23.497Z,48.98
2023-01-31T05:03:23.433Z,48.50
2023-01-31T05:04:23.407Z,53.82
2023-01-31T05:05:23.394Z,50.92
2023-01-31T05:06:23.386Z,49.95
2023-01-31T05:07:23.388Z,54.14
2023-01-31T05:08:23.394Z,49.15
2023-01-31T05:09:23.366Z,52.53
2023-01-31T05:10:23.357Z,53.50
2023-01-31T05:11:23.349Z,54.62
2023-01-31T05:12:23.340Z,53.98
2023-01-31T05:13:23.355Z,50.27
2023-01-31T05:14:23.328Z,52.37
2023-01-31T05:15:23.365Z,48.50
2023-01-31T05:16:23.322Z,49.15
2023-01-31T05:17:23.300Z,55.11
2023-01-31T05:18:23.316Z,47.86
2023-01-31T05:19:23.277Z,48.66
2023-01-31T05:20:23.280Z,54.95
2023-01-31T05:21:23.263Z,52.53
2023-01-31T05:22:23.259Z,52.53
2023-01-31T05:23:23.278Z,55.11
2023-01-31T05:24:23.246Z,50.43
2023-01-31T05:25:23.466Z,56.24
2023-01-31T05:26:23.265Z,56.56
2023-01-31T05:27:23.224Z,54.79
2023-01-31T05:28:23.231Z,54.30
2023-01-31T05:29:23.202Z,51.72
2023-01-31T05:30:23.187Z,55.43
2023-01-31T05:31:23.248Z,57.04
2023-01-31T05:32:23.175Z,56.07
2023-01-31T05:33:23.191Z,53.50
2023-01-31T05:34:23.156Z,54.46
2023-01-31T05:35:23.443Z,54.46
2023-01-31T05:36:23.143Z,51.40
2023-01-31T05:37:23.138Z,55.75
2023-01-31T05:38:23.157Z,52.53
2023-01-31T05:39:23.127Z,54.14
2023-01-31T05:40:23.142Z,54.14
2023-01-31T05:41:23.111Z,56.56
2023-01-31T05:42:23.094Z,57.36
2023-01-31T05:43:24.122Z,53.82
2023-01-31T05:44:23.081Z,53.98
2023-01-31T05:45:23.349Z,49.63
2023-01-31T05:46:23.068Z,48.66
2023-01-31T05:47:23.060Z,59.14
2023-01-31T05:48:23.080Z,58.65
2023-01-31T05:49:23.042Z,52.37
2023-01-31T05:50:23.043Z,53.50
2023-01-31T05:51:23.032Z,57.69
2023-01-31T05:52:23.021Z,55.27
2023-01-31T05:53:23.038Z,51.88
2023-01-31T05:54:23.007Z,60.26
2023-01-31T05:55:23.085Z,54.14
2023-01-31T05:56:22.988Z,55.27
2023-01-31T05:57:22.979Z,52.21
2023-01-31T05:58:23.000Z,56.88
2023-01-31T05:59:22.964Z,55.27
2023-01-31T06:00:22.959Z,54.62
2023-01-31T06:01:23.080Z,52.69
2023-01-31T06:02:22.992Z,56.07
2023-01-31T06:03:22.989Z,57.36
2023-01-31T06:04:22.927Z,56.56
2023-01-31T06:05:22.979Z,55.27
2023-01-31T06:06:22.911Z,54.46
2023-01-31T06:07:22.910Z,57.69
2023-01-31T06:08:22.936Z,53.50
2023-01-31T06:09:22.889Z,57.85
2023-01-31T06:10:22.883Z,56.88
2023-01-31T06:11:22.875Z,58.01
2023-01-31T06:12:22.862Z,58.65
2023-01-31T06:13:22.854Z,53.98
2023-01-31T06:14:22.868Z,54.95
2023-01-31T06:15:23.188Z,56.56
2023-01-31T06:16:22.880Z,58.49
2023-01-31T06:17:22.824Z,55.43
2023-01-31T06:18:22.817Z,53.82
2023-01-31T06:19:22.835Z,57.36
2023-01-31T06:20:22.801Z,58.17
2023-01-31T06:21:22.804Z,56.40
2023-01-31T06:22:22.784Z,58.01
2023-01-31T06:23:22.779Z,50.92
2023-01-31T06:24:22.803Z,50.92
2023-01-31T06:25:23.069Z,52.69
2023-01-31T06:26:22.838Z,59.78
2023-01-31T06:27:22.748Z,56.56
2023-01-31T06:28:22.737Z,57.69
2023-01-31T06:29:22.752Z,54.14
2023-01-31T06:30:22.749Z,55.91
2023-01-31T06:31:22.880Z,56.24
2023-01-31T06:32:22.705Z,50.27
2023-01-31T06:33:26.399Z,57.36
2023-01-31T06:34:24.709Z,56.07
2023-01-31T06:35:22.917Z,58.97
2023-01-31T06:36:22.673Z,56.07
2023-01-31T06:37:22.701Z,55.59
2023-01-31T06:38:22.660Z,53.98
2023-01-31T06:39:22.684Z,57.69
2023-01-31T06:40:22.649Z,60.10
2023-01-31T06:41:22.641Z,54.46
2023-01-31T06:42:22.647Z,57.04
2023-01-31T06:43:22.622Z,57.69
2023-01-31T06:44:22.643Z,55.11
2023-01-31T06:45:23.034Z,57.20
2023-01-31T06:46:22.660Z,55.59
2023-01-31T06:47:22.593Z,61.71
2023-01-31T06:48:22.585Z,57.69
2023-01-31T06:49:22.600Z,53.33
2023-01-31T06:50:22.570Z,54.46
2023-01-31T06:51:22.553Z,56.72
2023-01-31T06:52:22.544Z,52.85
2023-01-31T06:53:22.542Z,54.62
2023-01-31T06:54:22.576Z,52.21
2023-01-31T06:55:22.739Z,57.04
2023-01-31T06:56:22.516Z,57.69
2023-01-31T06:57:22.506Z,53.33
2023-01-31T06:58:22.501Z,54.14
2023-01-31T06:59:22.519Z,54.79
2023-01-31T07:00:22.493Z,53.01
2023-01-31T07:01:22.585Z,50.60
2023-01-31T07:02:22.470Z,60.59
2023-01-31T07:03:22.460Z,48.66
2023-01-31T07:04:22.524Z,49.15
2023-01-31T07:05:22.781Z,52.69
2023-01-31T07:06:22.445Z,53.33
2023-01-31T07:07:22.430Z,52.69
2023-01-31T07:08:22.440Z,50.60
2023-01-31T07:09:22.437Z,54.46
2023-01-31T07:10:22.436Z,52.37
2023-01-31T07:11:22.407Z,50.76
2023-01-31T07:12:22.389Z,52.37
2023-01-31T07:13:22.384Z,51.08
2023-01-31T07:14:22.371Z,54.95
2023-01-31T07:15:22.653Z,55.11
2023-01-31T07:16:22.377Z,55.59
2023-01-31T07:17:22.343Z,53.17
2023-01-31T07:18:23.339Z,54.62
2023-01-31T07:19:22.338Z,48.82
2023-01-31T07:20:22.354Z,51.56
2023-01-31T07:21:22.322Z,54.14
2023-01-31T07:22:22.311Z,54.46
2023-01-31T07:23:22.306Z,48.66
2023-01-31T07:24:22.292Z,49.15
2023-01-31T07:25:22.578Z,56.40
2023-01-31T07:26:22.301Z,53.98
2023-01-31T07:27:22.270Z,48.66
2023-01-31T07:28:22.261Z,51.72
2023-01-31T07:29:22.264Z,57.20
2023-01-31T07:30:22.319Z,51.88
2023-01-31T07:31:22.300Z,49.15
2023-01-31T07:32:22.233Z,53.50
2023-01-31T07:33:22.220Z,53.17
2023-01-31T07:34:22.214Z,50.60
2023-01-31T07:35:22.530Z,52.85
2023-01-31T07:36:22.226Z,56.56
2023-01-31T07:37:22.191Z,54.46
2023-01-31T07:38:22.186Z,57.36
2023-01-31T07:39:23.179Z,51.08
2023-01-31T07:40:22.178Z,57.20
2023-01-31T07:41:22.193Z,51.88
2023-01-31T07:42:22.162Z,54.14
2023-01-31T07:43:22.166Z,54.95
2023-01-31T07:44:22.145Z,51.72
2023-01-31T07:45:23.787Z,57.52
2023-01-31T07:46:23.276Z,59.30
2023-01-31T07:47:22.109Z,51.24
2023-01-31T07:48:22.106Z,51.56
2023-01-31T07:49:22.097Z,54.30
2023-01-31T07:50:22.089Z,52.85
2023-01-31T07:51:22.102Z,50.76
2023-01-31T07:52:22.073Z,49.79
2023-01-31T07:53:22.062Z,52.85
2023-01-31T07:54:22.062Z,52.53
2023-01-31T07:55:22.486Z,47.53
2023-01-31T07:56:22.068Z,58.49
2023-01-31T07:57:22.029Z,53.33
2023-01-31T07:58:22.016Z,48.50
2023-01-31T07:59:22.011Z,50.92
2023-01-31T08:00:22.005Z,50.92
2023-01-31T08:01:22.051Z,54.95
2023-01-31T08:02:21.990Z,50.76
2023-01-31T08:03:21.984Z,52.21
2023-01-31T08:04:22.884Z,51.08
2023-01-31T08:05:23.448Z,52.69
2023-01-31T08:06:21.988Z,55.59
2023-01-31T08:07:21.952Z,49.79
2023-01-31T08:08:21.950Z,53.33
2023-01-31T08:09:21.941Z,54.46
2023-01-31T08:10:21.927Z,52.21
2023-01-31T08:11:21.947Z,56.07
2023-01-31T08:12:21.911Z,56.40
2023-01-31T08:13:21.917Z,52.69
2023-01-31T08:14:21.893Z,56.07
2023-01-31T08:15:22.333Z,54.95
2023-01-31T08:16:21.911Z,53.66
2023-01-31T08:17:21.904Z,57.04
2023-01-31T08:18:21.861Z,53.50
2023-01-31T08:19:21.858Z,55.43
2023-01-31T08:20:21.846Z,54.95
2023-01-31T08:21:21.876Z,52.53
2023-01-31T08:22:21.830Z,56.56
2023-01-31T08:23:21.820Z,51.24
2023-01-31T08:24:21.817Z,47.70
2023-01-31T08:25:22.326Z,49.79
2023-01-31T08:26:21.875Z,51.72
2023-01-31T08:27:21.827Z,54.14
2023-01-31T08:28:21.785Z,54.46
2023-01-31T08:29:21.777Z,56.56
2023-01-31T08:30:21.805Z,54.95
2023-01-31T08:31:21.898Z,50.92
2023-01-31T08:32:21.768Z,49.63
2023-01-31T08:33:21.747Z,48.18
2023-01-31T08:34:21.734Z,55.43
2023-01-31T08:35:21.962Z,54.79
2023-01-31T08:36:21.746Z,57.69
2023-01-31T08:37:21.724Z,55.59
2023-01-31T08:38:21.743Z,48.66
2023-01-31T08:39:21.699Z,56.07
2023-01-31T08:40:21.688Z,52.53
2023-01-31T08:41:21.712Z,54.30
2023-01-31T08:42:21.713Z,53.50
2023-01-31T08:43:21.661Z,53.01
2023-01-31T08:44:21.661Z,50.60
2023-01-31T08:45:22.151Z,47.21
2023-01-31T08:46:21.673Z,49.79
2023-01-31T08:47:21.630Z,50.76
2023-01-31T08:48:21.616Z,53.01
2023-01-31T08:49:21.632Z,50.11
2023-01-31T08:50:27.613Z,53.33
2023-01-31T08:51:23.646Z,53.50
2023-01-31T08:52:21.592Z,53.66
2023-01-31T08:53:21.592Z,48.82
2023-01-31T08:54:21.580Z,52.53
2023-01-31T08:55:21.882Z,52.21
2023-01-31T08:56:21.842Z,57.20
2023-01-31T08:57:21.557Z,55.27
2023-01-31T08:58:21.544Z,54.95
2023-01-31T08:59:21.534Z,53.01
2023-01-31T09:00:21.546Z,50.11
2023-01-31T09:01:21.591Z,53.50
2023-01-31T09:02:21.521Z,50.60
2023-01-31T09:03:21.506Z,52.21
2023-01-31T09:04:21.503Z,48.98
2023-01-31T09:05:21.908Z,52.37
2023-01-31T09:06:21.483Z,51.40
2023-01-31T09:07:21.508Z,53.33
2023-01-31T09:08:21.463Z,54.14
2023-01-31T09:09:21.456Z,46.57
2023-01-31T09:10:21.451Z,50.76
2023-01-31T09:11:21.435Z,53.50
2023-01-31T09:12:21.455Z,56.07
2023-01-31T09:13:21.420Z,53.82
2023-01-31T09:14:21.409Z,52.53
2023-01-31T09:15:21.865Z,53.82
2023-01-31T09:16:21.393Z,53.01
2023-01-31T09:17:21.408Z,55.11
2023-01-31T09:18:21.374Z,48.18
2023-01-31T09:19:21.367Z,52.05
2023-01-31T09:20:21.364Z,49.15
2023-01-31T09:21:21.351Z,52.05
2023-01-31T09:22:21.376Z,50.43
2023-01-31T09:23:21.345Z,48.98
2023-01-31T09:24:21.328Z,48.82
2023-01-31T09:25:33.510Z,53.17
2023-01-31T09:26:23.360Z,51.88
2023-01-31T09:27:21.331Z,54.95
2023-01-31T09:28:21.301Z,52.37
2023-01-31T09:29:21.293Z,49.63
2023-01-31T09:30:21.319Z,50.27
2023-01-31T09:31:21.333Z,54.30
2023-01-31T09:32:21.301Z,50.43
2023-01-31T09:33:21.280Z,50.92
2023-01-31T09:34:21.253Z,50.60
2023-01-31T09:35:21.682Z,48.98
2023-01-31T09:36:21.269Z,50.43
2023-01-31T09:37:21.263Z,51.56
2023-01-31T09:38:21.267Z,50.76
2023-01-31T09:39:21.219Z,56.88
2023-01-31T09:40:21.214Z,53.17
2023-01-31T09:41:21.217Z,49.47
2023-01-31T09:42:21.249Z,51.40
2023-01-31T09:43:21.188Z,50.27
2023-01-31T09:44:21.200Z,53.01
2023-01-31T09:45:21.508Z,50.76
2023-01-31T09:46:21.195Z,49.47
2023-01-31T09:47:21.156Z,51.24
2023-01-31T09:48:21.173Z,48.98
2023-01-31T09:49:21.150Z,48.34
2023-01-31T09:50:21.131Z,49.47
2023-01-31T09:51:21.168Z,49.31
2023-01-31T09:52:21.119Z,50.11
2023-01-31T09:53:21.164Z,49.47
2023-01-31T09:54:21.114Z,49.47
2023-01-31T09:55:21.346Z,48.50
2023-01-31T09:56:21.087Z,48.98
2023-01-31T09:57:21.076Z,47.70
2023-01-31T09:58:21.094Z,53.82
2023-01-31T09:59:21.055Z,53.82
2023-01-31T10:00:21.052Z,52.05
2023-01-31T10:01:21.111Z,47.86
2023-01-31T10:02:21.036Z,47.70
2023-01-31T10:03:21.053Z,48.98
2023-01-31T10:04:21.029Z,50.43
2023-01-31T10:05:21.264Z,49.47
2023-01-31T10:06:21.017Z,52.53
2023-01-31T10:07:21.004Z,53.98
2023-01-31T10:08:21.016Z,50.92
2023-01-31T10:09:20.990Z,51.40
2023-01-31T10:10:20.990Z,49.47
2023-01-31T10:11:20.987Z,53.01
2023-01-31T10:12:20.955Z,50.43
2023-01-31T10:13:20.972Z,52.53
2023-01-31T10:14:20.943Z,53.33
2023-01-31T10:15:21.258Z,50.27
2023-01-31T10:16:20.924Z,51.72
2023-01-31T10:17:20.982Z,49.79
2023-01-31T10:18:20.935Z,50.11
2023-01-31T10:19:20.897Z,51.56
2023-01-31T10:20:21.260Z,52.21
2023-01-31T10:21:20.879Z,51.88
2023-01-31T10:22:20.879Z,50.11
2023-01-31T10:23:20.865Z,49.95
2023-01-31T10:24:20.891Z,49.63
2023-01-31T10:25:20.854Z,54.14
2023-01-31T10:26:20.897Z,52.37
2023-01-31T10:27:20.820Z,53.33
2023-01-31T10:28:21.827Z,52.05
2023-01-31T10:29:20.841Z,53.17
2023-01-31T10:30:22.387Z,55.43
2023-01-31T10:31:20.829Z,53.50
2023-01-31T10:32:20.798Z,51.40
2023-01-31T10:33:20.789Z,51.72
2023-01-31T10:34:20.807Z,48.66
2023-01-31T10:35:20.779Z,52.85
2023-01-31T10:36:20.769Z,54.46
2023-01-31T10:37:20.756Z,51.56
2023-01-31T10:38:20.763Z,52.21
2023-01-31T10:39:20.773Z,54.62
2023-01-31T10:40:21.158Z,52.05
2023-01-31T10:41:20.728Z,50.92
2023-01-31T10:42:20.717Z,49.15
2023-01-31T10:43:20.710Z,48.98
2023-01-31T10:44:20.728Z,52.21
2023-01-31T10:45:21.000Z,53.98
2023-01-31T10:46:20.789Z,55.11
2023-01-31T10:47:20.686Z,53.82
2023-01-31T10:48:20.680Z,49.31
2023-01-31T10:49:20.694Z,51.56
2023-01-31T10:50:21.011Z,55.11
2023-01-31T10:51:20.652Z,54.30
2023-01-31T10:52:20.641Z,50.92
2023-01-31T10:53:21.637Z,53.33
2023-01-31T10:54:20.658Z,54.79
2023-01-31T10:55:20.620Z,50.60
2023-01-31T10:56:20.616Z,50.11
2023-01-31T10:57:20.608Z,52.69
2023-01-31T10:58:20.600Z,53.50
2023-01-31T10:59:20.622Z,49.95
2023-01-31T11:00:20.868Z,50.27
2023-01-31T11:01:20.588Z,52.21
2023-01-31T11:02:20.598Z,49.47
2023-01-31T11:03:20.570Z,50.43
2023-01-31T11:04:20.589Z,50.43
2023-01-31T11:05:20.561Z,56.24
2023-01-31T11:06:20.545Z,52.05
2023-01-31T11:07:20.531Z,51.24
2023-01-31T11:08:20.547Z,53.33
2023-01-31T11:09:22.012Z,50.60
2023-01-31T11:10:21.829Z,51.88
2023-01-31T11:11:20.508Z,50.76
2023-01-31T11:12:20.506Z,51.24
2023-01-31T11:13:20.521Z,50.43
2023-01-31T11:14:20.511Z,52.69
2023-01-31T11:15:20.482Z,55.91
2023-01-31T11:16:20.479Z,53.17
2023-01-31T11:17:21.496Z,53.33
2023-01-31T11:18:20.456Z,54.30
2023-01-31T11:19:20.446Z,51.72
2023-01-31T11:20:20.805Z,53.82
2023-01-31T11:21:20.432Z,54.79
2023-01-31T11:22:20.431Z,53.98
2023-01-31T11:23:20.416Z,54.46
2023-01-31T11:24:20.415Z,54.62
2023-01-31T11:25:20.431Z,54.14
2023-01-31T11:26:20.413Z,52.05
2023-01-31T11:27:20.382Z,54.30
2023-01-31T11:28:20.377Z,50.92
2023-01-31T11:29:20.370Z,53.17
2023-01-31T11:30:20.793Z,52.85
2023-01-31T11:31:20.379Z,55.59
2023-01-31T11:32:20.356Z,54.95
2023-01-31T11:33:20.338Z,54.95
2023-01-31T11:34:20.325Z,54.46
2023-01-31T11:35:20.343Z,55.59
2023-01-31T11:36:20.297Z,55.91
2023-01-31T11:37:21.300Z,51.56
2023-01-31T11:38:20.295Z,53.98
2023-01-31T11:39:20.295Z,53.01
2023-01-31T11:40:20.627Z,53.50
2023-01-31T11:41:20.270Z,52.53
2023-01-31T11:42:20.260Z,53.66
2023-01-31T11:43:20.301Z,56.07
2023-01-31T11:44:20.252Z,53.01
2023-01-31T11:45:20.274Z,52.05
2023-01-31T11:46:20.269Z,52.69
2023-01-31T11:47:20.251Z,51.72
2023-01-31T11:48:20.216Z,52.05
2023-01-31T11:49:20.213Z,52.53
2023-01-31T11:50:20.589Z,53.50
2023-01-31T11:51:20.195Z,52.53
2023-01-31T11:52:20.191Z,51.88
2023-01-31T11:53:20.177Z,54.62
2023-01-31T11:54:20.171Z,53.01
2023-01-31T11:55:20.189Z,55.11
2023-01-31T11:56:20.153Z,53.50
2023-01-31T11:57:20.145Z,55.59
2023-01-31T11:58:20.137Z,52.69
2023-01-31T11:59:20.139Z,52.37
2023-01-31T12:00:20.446Z,52.21
2023-01-31T12:01:20.136Z,53.01
2023-01-31T12:02:20.141Z,54.46
2023-01-31T12:03:20.123Z,52.85
2023-01-31T12:04:20.112Z,55.43
2023-01-31T12:05:20.075Z,53.01
2023-01-31T12:06:20.095Z,53.66
2023-01-31T12:07:20.066Z,53.82
2023-01-31T12:08:20.055Z,50.60
2023-01-31T12:09:20.049Z,50.92
2023-01-31T12:10:20.218Z,54.46
2023-01-31T12:11:20.053Z,56.07
2023-01-31T12:12:20.025Z,56.07
2023-01-31T12:13:20.012Z,57.36
2023-01-31T12:14:20.014Z,53.17
2023-01-31T12:15:20.272Z,53.82
2023-01-31T12:16:20.032Z,56.07
2023-01-31T12:17:19.980Z,58.01
2023-01-31T12:18:19.976Z,56.07
2023-01-31T12:19:19.965Z,52.85
2023-01-31T12:20:28.859Z,50.92
2023-01-31T12:21:21.986Z,54.95
2023-01-31T12:22:19.951Z,53.98
2023-01-31T12:23:19.940Z,53.33
2023-01-31T12:24:19.926Z,54.95
2023-01-31T12:25:21.275Z,56.88
2023-01-31T12:26:20.031Z,52.37
2023-01-31T12:27:19.905Z,53.82
2023-01-31T12:28:19.900Z,54.14
2023-01-31T12:29:19.894Z,55.91
2023-01-31T12:30:19.917Z,55.75
2023-01-31T12:31:19.982Z,55.43
2023-01-31T12:32:20.883Z,54.46
2023-01-31T12:33:19.860Z,52.53
2023-01-31T12:34:19.854Z,51.56
2023-01-31T12:35:19.849Z,51.08
2023-01-31T12:36:19.878Z,55.27
2023-01-31T12:37:19.842Z,53.98
2023-01-31T12:38:19.821Z,54.95
2023-01-31T12:39:19.834Z,55.27
2023-01-31T12:40:25.192Z,54.95
2023-01-31T12:41:21.854Z,54.79
2023-01-31T12:42:19.795Z,55.59
2023-01-31T12:43:19.794Z,54.30
2023-01-31T12:44:19.798Z,53.33
2023-01-31T12:45:20.090Z,54.79
2023-01-31T12:46:19.820Z,57.52
2023-01-31T12:47:19.781Z,52.37
2023-01-31T12:48:19.747Z,52.21
2023-01-31T12:49:19.773Z,51.08
2023-01-31T12:50:19.732Z,56.56
2023-01-31T12:51:19.724Z,54.95
2023-01-31T12:52:19.751Z,54.14